Terminal Aerodrome Forecast
Issued by NWS

Home | Current Version | Previous Version | Text Only | Print | Product List | Glossary On
Versions: 1 2 3 4 5 6 7 8 9 10 11 12 13 14 15 16 17 18
000
FTUS43 KABR 020523
TAFPIR
TAF
KPIR 020523Z 0206/0306 13009KT P6SM FEW080 BKN150 OVC250
     FM020900 14010KT P6SM VCTS SCT025 BKN090 OVC150CB
     FM021200 17013G21KT P6SM SCT030 BKN150
     FM022300 28010KT P6SM VCTS SCT040 BKN070CB OVC120
     FM030000 32008KT P6SM FEW120 BKN250=

USA.gov is the U.S. government's official web portal to all federal, state and local government web resources and services.